createdAt,value
2022-08-29T00:01:40.568Z,18.50
2022-08-29T00:04:09.038Z,18.50
2022-08-29T00:06:37.450Z,18.50
2022-08-29T00:09:05.947Z,18.40
2022-08-29T00:11:35.553Z,18.40
2022-08-29T00:14:08.334Z,18.30
2022-08-29T00:16:49.542Z,18.30
2022-08-29T00:19:18.225Z,18.30
2022-08-29T00:21:46.604Z,18.20
2022-08-29T00:24:15.375Z,18.20
2022-08-29T00:26:45.078Z,18.20
2022-08-29T00:29:13.354Z,18.10
2022-08-29T00:31:42.920Z,17.90
2022-08-29T00:34:11.519Z,17.90
2022-08-29T00:36:39.946Z,17.90
2022-08-29T00:39:09.325Z,17.90
2022-08-29T00:41:37.949Z,17.80
2022-08-29T00:44:07.717Z,17.70
2022-08-29T00:46:47.685Z,17.70
2022-08-29T00:49:27.231Z,17.70
2022-08-29T00:52:00.933Z,17.70
2022-08-29T00:54:29.291Z,17.60
2022-08-29T00:56:58.979Z,17.60
2022-08-29T00:59:35.715Z,17.50
2022-08-29T01:02:05.038Z,17.50
2022-08-29T01:04:34.373Z,17.60
2022-08-29T01:07:02.982Z,17.50
2022-08-29T01:09:31.771Z,17.40
2022-08-29T01:12:17.518Z,17.40
2022-08-29T01:14:52.168Z,17.40
2022-08-29T01:17:23.521Z,17.40
2022-08-29T01:19:57.650Z,17.30
2022-08-29T01:22:48.560Z,17.20
2022-08-29T01:25:20.672Z,17.20
2022-08-29T01:27:53.785Z,17.20
2022-08-29T01:30:22.115Z,17.20
2022-08-29T01:32:50.794Z,17.20
2022-08-29T01:35:19.120Z,17.20
2022-08-29T01:37:47.357Z,17.10
2022-08-29T01:40:17.155Z,17.20
2022-08-29T01:42:46.451Z,17.10
2022-08-29T01:45:14.771Z,17.20
2022-08-29T01:47:43.011Z,17.10
2022-08-29T01:50:14.474Z,17.00
2022-08-29T01:52:43.306Z,17.00
2022-08-29T01:55:11.908Z,16.90
2022-08-29T01:57:42.258Z,16.90
2022-08-29T02:00:12.827Z,16.80
2022-08-29T02:02:43.014Z,16.80
2022-08-29T02:05:11.942Z,16.80
2022-08-29T02:07:40.825Z,16.80
2022-08-29T02:10:09.813Z,16.80
2022-08-29T02:12:38.237Z,16.80
2022-08-29T02:15:08.973Z,16.80
2022-08-29T02:17:37.627Z,16.80
2022-08-29T02:20:08.308Z,16.80
2022-08-29T02:22:37.701Z,16.80
2022-08-29T02:25:27.960Z,16.80
2022-08-29T02:27:57.690Z,16.70
2022-08-29T02:30:27.532Z,16.70
2022-08-29T02:32:55.871Z,16.60
2022-08-29T02:35:24.510Z,16.60
2022-08-29T02:37:53.157Z,16.60
2022-08-29T02:40:31.519Z,16.60
2022-08-29T02:43:01.142Z,16.60
2022-08-29T02:45:31.898Z,16.60
2022-08-29T02:48:00.824Z,16.70
2022-08-29T02:50:29.605Z,16.60
2022-08-29T02:52:58.427Z,16.60
2022-08-29T02:55:27.410Z,16.60
2022-08-29T02:57:55.969Z,16.60
2022-08-29T03:00:26.598Z,16.50
2022-08-29T03:02:57.814Z,16.50
2022-08-29T03:05:28.818Z,16.40
2022-08-29T03:07:58.061Z,16.30
2022-08-29T03:10:27.184Z,16.30
2022-08-29T03:12:55.536Z,16.30
2022-08-29T03:15:24.143Z,16.30
2022-08-29T03:17:52.451Z,16.30
2022-08-29T03:20:24.543Z,16.30
2022-08-29T03:22:54.684Z,16.30
2022-08-29T03:25:24.184Z,16.20
2022-08-29T03:27:52.865Z,16.20
2022-08-29T03:30:21.692Z,16.20
2022-08-29T03:32:52.496Z,16.20
2022-08-29T03:35:23.032Z,16.20
2022-08-29T03:37:52.313Z,16.30
2022-08-29T03:40:20.813Z,16.20
2022-08-29T03:42:49.275Z,16.10
2022-08-29T03:45:19.119Z,16.10
2022-08-29T03:47:47.598Z,16.10
2022-08-29T03:50:19.291Z,16.10
2022-08-29T03:52:49.300Z,16.00
2022-08-29T03:55:17.978Z,16.00
2022-08-29T03:57:46.356Z,16.00
2022-08-29T04:00:18.116Z,16.00
2022-08-29T04:02:47.799Z,15.90
2022-08-29T04:05:18.142Z,15.90
2022-08-29T04:07:51.022Z,15.80
2022-08-29T04:10:23.114Z,15.70
2022-08-29T04:12:54.778Z,15.70
2022-08-29T04:15:24.897Z,15.70
2022-08-29T04:17:55.264Z,15.70
2022-08-29T04:20:26.506Z,15.70
2022-08-29T04:22:57.533Z,15.70
2022-08-29T04:25:27.699Z,15.70
2022-08-29T04:27:57.144Z,15.70
2022-08-29T04:30:28.107Z,15.80
2022-08-29T04:32:58.396Z,15.80
2022-08-29T04:35:26.502Z,15.70
2022-08-29T04:37:56.341Z,15.70
2022-08-29T04:40:25.014Z,15.60
2022-08-29T04:42:53.362Z,15.60
2022-08-29T04:45:24.248Z,15.60
2022-08-29T04:47:52.667Z,15.50
2022-08-29T04:50:24.124Z,15.60
2022-08-29T04:52:57.881Z,15.50
2022-08-29T04:55:26.409Z,15.50
2022-08-29T04:57:57.144Z,15.50
2022-08-29T05:00:30.225Z,15.50
2022-08-29T05:02:59.631Z,15.40
2022-08-29T05:05:28.838Z,15.40
2022-08-29T05:07:58.519Z,15.40
2022-08-29T05:10:26.824Z,15.40
2022-08-29T05:12:55.005Z,15.40
2022-08-29T05:15:23.278Z,15.30
2022-08-29T05:17:51.936Z,15.30
2022-08-29T05:20:20.844Z,15.30
2022-08-29T05:22:49.113Z,15.30
2022-08-29T05:25:19.149Z,15.40
2022-08-29T05:27:47.841Z,15.30
2022-08-29T05:30:34.846Z,15.30
2022-08-29T05:33:04.253Z,15.40
2022-08-29T05:35:33.205Z,15.40
2022-08-29T05:38:08.589Z,15.40
2022-08-29T05:40:39.824Z,15.40
2022-08-29T05:43:10.072Z,15.40
2022-08-29T05:45:38.616Z,15.40
2022-08-29T05:48:10.899Z,15.40
2022-08-29T05:50:41.806Z,15.30
2022-08-29T05:53:10.673Z,15.40
2022-08-29T05:55:42.716Z,15.40
2022-08-29T05:58:11.411Z,15.40
2022-08-29T06:00:42.598Z,15.30
2022-08-29T06:03:13.084Z,15.30
2022-08-29T06:05:42.385Z,15.40
2022-08-29T06:08:10.744Z,15.40
2022-08-29T06:10:44.938Z,15.40
2022-08-29T06:13:13.720Z,15.60
2022-08-29T06:15:45.557Z,15.60
2022-08-29T06:18:14.250Z,15.70
2022-08-29T06:20:42.816Z,15.70
2022-08-29T06:23:11.023Z,15.80
2022-08-29T06:25:40.332Z,15.90
2022-08-29T06:28:10.258Z,15.90
2022-08-29T06:30:38.791Z,16.00
2022-08-29T06:33:07.031Z,16.10
2022-08-29T06:35:35.252Z,16.30
2022-08-29T06:38:03.486Z,16.40
2022-08-29T06:40:31.886Z,16.50
2022-08-29T06:43:00.374Z,16.60
2022-08-29T06:45:30.099Z,16.70
2022-08-29T06:47:58.373Z,16.70
2022-08-29T06:50:28.338Z,16.70
2022-08-29T06:53:05.346Z,16.80
2022-08-29T06:55:44.959Z,16.90
2022-08-29T06:58:15.386Z,16.90
2022-08-29T07:00:49.569Z,17.00
2022-08-29T07:03:19.117Z,17.10
2022-08-29T07:05:52.670Z,17.20
2022-08-29T07:08:21.129Z,17.30
2022-08-29T07:10:49.362Z,17.40
2022-08-29T07:13:17.613Z,17.50
2022-08-29T07:15:47.605Z,17.50
2022-08-29T07:18:16.185Z,17.50
2022-08-29T07:20:44.922Z,17.60
2022-08-29T07:23:13.436Z,17.70
2022-08-29T07:25:41.712Z,17.80
2022-08-29T07:28:10.448Z,17.90
2022-08-29T07:30:39.049Z,17.90
2022-08-29T07:33:09.458Z,17.90
2022-08-29T07:35:37.839Z,18.00
2022-08-29T07:38:08.436Z,18.10
2022-08-29T07:40:39.183Z,18.20
2022-08-29T07:43:11.056Z,18.20
2022-08-29T07:45:42.753Z,18.40
2022-08-29T07:48:14.626Z,18.50
2022-08-29T07:50:43.829Z,18.60
2022-08-29T07:53:14.520Z,18.80
2022-08-29T07:55:42.825Z,18.90
2022-08-29T07:58:11.503Z,19.00
2022-08-29T08:00:39.930Z,19.20
2022-08-29T08:03:08.770Z,19.20
2022-08-29T08:05:39.234Z,19.30
2022-08-29T08:08:15.131Z,19.40
2022-08-29T08:10:43.778Z,19.40
2022-08-29T08:13:12.192Z,19.60
2022-08-29T08:15:40.862Z,19.60
2022-08-29T08:18:09.261Z,19.80
2022-08-29T08:20:48.165Z,20.00
2022-08-29T08:23:17.215Z,20.00
2022-08-29T08:25:46.382Z,20.20
2022-08-29T08:28:15.572Z,20.30
2022-08-29T08:30:44.374Z,20.40
2022-08-29T08:33:13.078Z,20.30
2022-08-29T08:35:42.809Z,20.30
2022-08-29T08:38:18.571Z,20.30
2022-08-29T08:40:54.482Z,20.40
2022-08-29T08:43:28.617Z,20.50
2022-08-29T08:45:58.016Z,20.40
2022-08-29T08:48:38.714Z,20.50
2022-08-29T08:51:16.150Z,20.60
2022-08-29T08:53:46.945Z,20.70
2022-08-29T08:56:33.136Z,20.80
2022-08-29T08:59:08.275Z,20.90
2022-08-29T09:01:40.723Z,20.90
2022-08-29T09:04:44.435Z,20.80
2022-08-29T09:07:23.937Z,20.90
2022-08-29T09:10:04.920Z,20.90
2022-08-29T09:12:41.573Z,20.90
2022-08-29T09:15:14.186Z,20.90
2022-08-29T09:17:47.769Z,20.90
2022-08-29T09:20:19.724Z,20.90
2022-08-29T09:22:59.287Z,21.00
2022-08-29T09:25:29.082Z,20.90
2022-08-29T09:27:58.257Z,21.00
2022-08-29T09:30:29.224Z,21.00
2022-08-29T09:33:00.737Z,21.10
2022-08-29T09:35:34.720Z,21.10
2022-08-29T09:38:07.559Z,21.20
2022-08-29T09:40:55.250Z,21.30
2022-08-29T09:43:28.222Z,21.50
2022-08-29T09:46:19.162Z,21.70
2022-08-29T09:48:49.185Z,21.90
2022-08-29T09:51:28.277Z,22.00
2022-08-29T09:54:15.123Z,22.10
2022-08-29T09:56:54.824Z,22.10
2022-08-29T09:59:28.447Z,22.30
2022-08-29T10:02:24.945Z,22.50
2022-08-29T10:04:56.740Z,22.50
2022-08-29T10:07:28.847Z,22.50
2022-08-29T10:10:01.774Z,22.60
2022-08-29T10:12:55.685Z,22.70
2022-08-29T10:15:49.238Z,22.80
2022-08-29T10:18:28.591Z,22.80
2022-08-29T10:21:25.032Z,22.90
2022-08-29T10:24:19.523Z,23.10
2022-08-29T10:27:01.598Z,23.20
2022-08-29T10:29:52.645Z,23.30
2022-08-29T10:32:35.181Z,23.40
2022-08-29T10:35:15.768Z,23.60
2022-08-29T10:37:53.185Z,23.80
2022-08-29T10:40:28.059Z,23.80
2022-08-29T10:43:25.213Z,23.90
2022-08-29T10:46:05.226Z,24.00
2022-08-29T10:48:38.719Z,24.00
2022-08-29T10:51:20.106Z,24.00
2022-08-29T10:53:56.983Z,24.10
2022-08-29T10:56:31.506Z,24.10
2022-08-29T10:59:18.255Z,24.20
2022-08-29T11:01:53.131Z,24.50
2022-08-29T11:04:25.864Z,24.70
2022-08-29T11:07:01.469Z,24.70
2022-08-29T11:09:37.756Z,24.70
2022-08-29T11:12:11.164Z,24.60
2022-08-29T11:14:52.815Z,25.10
2022-08-29T11:17:25.830Z,26.50
2022-08-29T11:20:03.106Z,28.20
2022-08-29T11:22:36.829Z,28.30
2022-08-29T11:25:10.451Z,28.60
2022-08-29T11:27:47.561Z,28.70
2022-08-29T11:30:23.902Z,28.80
2022-08-29T11:33:04.531Z,28.80
2022-08-29T11:35:43.728Z,28.40
2022-08-29T11:38:42.000Z,27.80
2022-08-29T11:41:27.267Z,27.50
2022-08-29T11:44:14.136Z,27.60
2022-08-29T11:46:53.357Z,27.60
2022-08-29T11:49:38.581Z,26.90
2022-08-29T11:52:27.480Z,26.10
2022-08-29T11:55:22.660Z,26.20
2022-08-29T11:57:56.692Z,26.40
2022-08-29T12:00:48.799Z,26.70
2022-08-29T12:03:56.821Z,27.20
2022-08-29T12:06:39.835Z,27.50
2022-08-29T12:09:41.305Z,27.70
2022-08-29T12:12:35.739Z,27.80
2022-08-29T12:15:41.733Z,27.30
2022-08-29T12:18:50.565Z,27.20
2022-08-29T12:21:51.580Z,27.70
2022-08-29T12:24:41.505Z,28.10
2022-08-29T12:27:47.637Z,28.10
2022-08-29T12:30:16.450Z,28.00
2022-08-29T12:32:54.775Z,27.80
2022-08-29T12:35:54.442Z,27.80
2022-08-29T12:38:31.425Z,27.80
2022-08-29T12:41:12.801Z,27.70
2022-08-29T12:43:43.912Z,27.60
2022-08-29T12:46:18.361Z,27.40
2022-08-29T12:48:57.457Z,27.50
2022-08-29T12:51:34.997Z,27.70
2022-08-29T12:54:03.337Z,27.80
2022-08-29T12:56:34.184Z,28.00
2022-08-29T12:59:05.500Z,28.10
2022-08-29T13:01:55.921Z,28.20
2022-08-29T13:04:32.047Z,28.30
2022-08-29T13:07:03.564Z,28.50
2022-08-29T13:09:34.805Z,28.50
2022-08-29T13:12:20.420Z,28.80
2022-08-29T13:14:54.441Z,28.90
2022-08-29T13:17:26.359Z,28.70
2022-08-29T13:20:34.966Z,28.30
2022-08-29T13:23:10.996Z,28.10
2022-08-29T13:25:48.811Z,28.40
2022-08-29T13:28:21.739Z,28.80
2022-08-29T13:31:23.185Z,28.80
2022-08-29T13:34:25.161Z,28.40
2022-08-29T13:37:00.154Z,28.50
2022-08-29T13:39:31.903Z,28.60
2022-08-29T13:42:15.956Z,29.20
2022-08-29T13:45:08.760Z,29.30
2022-08-29T13:47:56.588Z,29.30
2022-08-29T13:50:27.339Z,29.10
2022-08-29T13:52:57.369Z,29.30
2022-08-29T13:55:26.471Z,29.80
2022-08-29T13:57:58.442Z,29.60
2022-08-29T14:00:34.989Z,29.50
2022-08-29T14:03:07.084Z,29.20
2022-08-29T14:05:38.804Z,29.00
2022-08-29T14:08:07.748Z,28.80
2022-08-29T14:10:36.478Z,28.90
2022-08-29T14:13:05.593Z,28.80
2022-08-29T14:15:34.820Z,28.80
2022-08-29T14:18:03.224Z,28.90
2022-08-29T14:20:31.624Z,28.70
2022-08-29T14:23:01.649Z,28.80
2022-08-29T14:25:30.030Z,29.00
2022-08-29T14:27:58.266Z,29.00
2022-08-29T14:30:26.921Z,29.00
2022-08-29T14:32:55.288Z,28.90
2022-08-29T14:35:26.602Z,29.00
2022-08-29T14:38:02.856Z,29.10
2022-08-29T14:40:33.766Z,28.80
2022-08-29T14:43:03.291Z,28.30
2022-08-29T14:45:32.541Z,28.20
2022-08-29T14:48:01.224Z,28.40
2022-08-29T14:50:30.163Z,28.30
2022-08-29T14:52:58.694Z,28.20
2022-08-29T14:55:28.740Z,28.10
2022-08-29T14:57:59.075Z,27.90
2022-08-29T15:00:30.225Z,27.80
2022-08-29T15:02:59.984Z,27.60
2022-08-29T15:05:28.438Z,27.40
2022-08-29T15:07:57.031Z,27.30
2022-08-29T15:10:26.249Z,27.20
2022-08-29T15:12:56.131Z,27.10
2022-08-29T15:15:29.532Z,27.00
2022-08-29T15:17:58.967Z,27.00
2022-08-29T15:20:36.119Z,27.00
2022-08-29T15:23:05.365Z,27.00
2022-08-29T15:25:34.350Z,27.00
2022-08-29T15:28:05.572Z,27.00
2022-08-29T15:30:35.008Z,26.90
2022-08-29T15:33:03.915Z,26.90
2022-08-29T15:35:32.597Z,26.90
2022-08-29T15:38:02.599Z,26.80
2022-08-29T15:40:32.361Z,26.80
2022-08-29T15:43:00.807Z,26.80
2022-08-29T15:45:30.919Z,26.80
2022-08-29T15:48:01.367Z,26.80
2022-08-29T15:50:32.275Z,26.80
2022-08-29T15:53:01.004Z,26.80
2022-08-29T15:55:29.386Z,26.80
2022-08-29T15:58:00.899Z,26.90
2022-08-29T16:00:31.265Z,26.90
2022-08-29T16:03:04.667Z,26.80
2022-08-29T16:05:34.327Z,26.80
2022-08-29T16:08:03.248Z,26.80
2022-08-29T16:10:32.227Z,26.80
2022-08-29T16:13:01.528Z,26.70
2022-08-29T16:15:34.185Z,26.70
2022-08-29T16:18:13.499Z,26.70
2022-08-29T16:20:44.031Z,26.70
2022-08-29T16:23:13.981Z,26.70
2022-08-29T16:25:44.320Z,26.70
2022-08-29T16:28:19.758Z,26.80
2022-08-29T16:30:57.285Z,26.90
2022-08-29T16:33:28.967Z,26.80
2022-08-29T16:36:01.279Z,26.80
2022-08-29T16:38:31.224Z,26.70
2022-08-29T16:41:07.605Z,26.70
2022-08-29T16:43:41.091Z,26.80
2022-08-29T16:46:14.762Z,26.70
2022-08-29T16:48:43.501Z,26.80
2022-08-29T16:51:12.573Z,26.80
2022-08-29T16:53:48.397Z,26.90
2022-08-29T16:56:18.538Z,27.20
2022-08-29T16:59:01.453Z,27.70
2022-08-29T17:01:46.636Z,28.40
2022-08-29T17:04:21.045Z,29.10
2022-08-29T17:06:54.292Z,29.80
2022-08-29T17:09:26.608Z,29.80
2022-08-29T17:11:56.263Z,29.80
2022-08-29T17:14:25.951Z,29.70
2022-08-29T17:17:00.547Z,29.40
2022-08-29T17:19:29.272Z,28.90
2022-08-29T17:22:02.007Z,28.20
2022-08-29T17:24:32.800Z,27.60
2022-08-29T17:27:02.774Z,26.90
2022-08-29T17:29:31.302Z,26.50
2022-08-29T17:32:01.059Z,26.20
2022-08-29T17:34:29.339Z,26.00
2022-08-29T17:36:57.710Z,25.80
2022-08-29T17:39:29.266Z,25.70
2022-08-29T17:41:58.691Z,25.50
2022-08-29T17:44:28.846Z,25.40
2022-08-29T17:46:57.161Z,25.30
2022-08-29T17:49:27.707Z,25.20
2022-08-29T17:51:56.098Z,25.10
2022-08-29T17:54:25.599Z,25.10
2022-08-29T17:56:56.485Z,25.00
2022-08-29T17:59:27.372Z,24.90
2022-08-29T18:02:00.392Z,24.80
2022-08-29T18:04:31.177Z,24.70
2022-08-29T18:07:00.105Z,24.60
2022-08-29T18:09:29.095Z,24.40
2022-08-29T18:11:58.469Z,24.40
2022-08-29T18:14:31.303Z,24.30
2022-08-29T18:17:00.130Z,24.30
2022-08-29T18:19:29.967Z,24.20
2022-08-29T18:21:58.830Z,24.20
2022-08-29T18:27:55.550Z,24.00
2022-08-29T18:39:13.863Z,23.70
2022-08-29T18:41:53.176Z,23.60
2022-08-29T18:44:21.503Z,23.50
2022-08-29T18:46:53.206Z,23.50
2022-08-29T18:49:41.434Z,23.40
2022-08-29T18:52:11.648Z,23.40
2022-08-29T18:54:41.169Z,23.30
2022-08-29T18:57:10.768Z,23.30
2022-08-29T18:59:46.822Z,23.20
2022-08-29T19:02:16.002Z,23.20
2022-08-29T19:04:44.978Z,23.10
2022-08-29T19:07:24.173Z,23.00
2022-08-29T19:09:53.043Z,23.00
2022-08-29T19:12:26.565Z,23.00
2022-08-29T19:14:58.013Z,22.90
2022-08-29T19:17:27.922Z,22.80
2022-08-29T19:20:16.774Z,22.80
2022-08-29T19:22:49.283Z,22.70
2022-08-29T19:25:19.834Z,22.70
2022-08-29T19:27:55.986Z,22.60
2022-08-29T19:30:53.912Z,22.60
2022-08-29T19:33:33.960Z,22.60
2022-08-29T19:36:07.170Z,22.50
2022-08-29T19:38:44.369Z,22.50
2022-08-29T19:41:13.438Z,22.40
2022-08-29T19:43:42.186Z,22.30
2022-08-29T19:46:16.440Z,22.30
2022-08-29T19:48:48.668Z,22.30
2022-08-29T19:51:25.033Z,22.20
2022-08-29T19:54:06.093Z,22.10
2022-08-29T19:56:46.719Z,22.10
2022-08-29T19:59:18.160Z,22.00
2022-08-29T20:01:47.982Z,22.00
2022-08-29T20:04:17.258Z,21.90
2022-08-29T20:06:47.566Z,21.90
2022-08-29T20:11:48.675Z,21.80
2022-08-29T20:14:17.818Z,21.80
2022-08-29T20:16:47.245Z,21.80
2022-08-29T20:19:16.085Z,21.70
2022-08-29T20:21:44.923Z,21.70
2022-08-29T20:24:15.773Z,21.60
2022-08-29T20:26:49.572Z,21.60
2022-08-29T20:29:20.602Z,21.60
2022-08-29T20:31:57.264Z,21.50
2022-08-29T20:34:29.279Z,21.50
2022-08-29T20:37:11.130Z,21.40
2022-08-29T20:39:46.503Z,21.40
2022-08-29T20:42:18.425Z,21.30
2022-08-29T20:44:46.822Z,21.20
2022-08-29T20:47:27.503Z,21.20
2022-08-29T20:50:03.885Z,21.10
2022-08-29T20:52:32.142Z,21.00
2022-08-29T20:55:00.313Z,21.00
2022-08-29T20:57:29.935Z,20.90
2022-08-29T20:59:59.770Z,20.90
2022-08-29T21:02:45.407Z,20.80
2022-08-29T21:05:31.407Z,20.80
2022-08-29T21:07:59.573Z,20.80
2022-08-29T21:10:28.065Z,20.80
2022-08-29T21:12:57.962Z,20.80
2022-08-29T21:15:26.905Z,20.80
2022-08-29T21:17:55.704Z,20.70
2022-08-29T21:20:24.127Z,20.70
2022-08-29T21:22:52.463Z,20.60
2022-08-29T21:25:20.979Z,20.60
2022-08-29T21:27:49.507Z,20.60
2022-08-29T21:30:19.503Z,20.50
2022-08-29T21:32:48.258Z,20.50
2022-08-29T21:35:17.517Z,20.50
2022-08-29T21:37:45.717Z,20.50
2022-08-29T21:40:14.394Z,20.50
2022-08-29T21:42:43.046Z,20.40
2022-08-29T21:45:12.397Z,20.40
2022-08-29T21:47:42.389Z,20.30
2022-08-29T21:50:11.578Z,20.30
2022-08-29T21:52:39.987Z,20.30
2022-08-29T21:55:09.527Z,20.20
2022-08-29T21:57:51.912Z,20.20
2022-08-29T22:00:21.391Z,20.20
2022-08-29T22:02:51.132Z,20.20
2022-08-29T22:05:20.258Z,20.20
2022-08-29T22:07:49.402Z,20.10
2022-08-29T22:10:22.016Z,20.10
2022-08-29T22:12:50.268Z,20.10
2022-08-29T22:15:36.802Z,20.10
2022-08-29T22:18:06.939Z,20.10
2022-08-29T22:20:36.557Z,20.00
2022-08-29T22:23:05.701Z,20.00
2022-08-29T22:25:34.521Z,19.90
2022-08-29T22:28:03.557Z,19.90
2022-08-29T22:30:32.664Z,19.90
2022-08-29T22:33:01.893Z,19.80
2022-08-29T22:35:31.900Z,19.80
2022-08-29T22:38:00.893Z,19.90
2022-08-29T22:40:30.010Z,19.70
2022-08-29T22:42:58.463Z,19.70
2022-08-29T22:45:26.716Z,19.60
2022-08-29T22:47:55.111Z,19.60
2022-08-29T22:50:26.015Z,19.50
2022-08-29T22:52:58.358Z,19.50
2022-08-29T22:57:54.880Z,19.40
2022-08-29T23:00:26.632Z,19.40
2022-08-29T23:02:55.341Z,19.40
2022-08-29T23:05:25.190Z,19.40
2022-08-29T23:07:53.634Z,19.40
2022-08-29T23:10:23.530Z,19.40
2022-08-29T23:12:52.057Z,19.40
2022-08-29T23:24:23.547Z,19.30
2022-08-29T23:26:53.206Z,19.40
2022-08-29T23:29:21.678Z,19.30
2022-08-29T23:31:50.296Z,19.30
2022-08-29T23:34:18.609Z,19.30
2022-08-29T23:36:46.877Z,19.20
2022-08-29T23:39:15.150Z,19.20
2022-08-29T23:41:43.622Z,19.10
2022-08-29T23:44:13.317Z,19.10
2022-08-29T23:46:41.631Z,19.10
2022-08-29T23:49:09.915Z,19.10
2022-08-29T23:51:38.317Z,19.00
2022-08-29T23:54:06.645Z,19.00
2022-08-29T23:56:38.149Z,18.90
2022-08-29T23:59:06.674Z,18.90
